Time,TemperatureF,DewpointF,PressureIn,WindDirection,WindDirectionDegrees,WindSpeedMPH,WindSpeedGustMPH,Humidity,HourlyPrecipIn,Conditions,Clouds,dailyrainin,SoftwareType,DateUTC
2013-10-26 00:01:00,37.5,27.9,30.16,SW,229,10.0,10.0,68,0.00,RA,,0.00,WeatherDisplay:10.37,2013-10-26 05:01:00,
2013-10-26 00:06:00,37.4,27.8,30.16,SSE,168,5.8,5.8,68,0.00,RA,,0.00,WeatherDisplay:10.37,2013-10-26 05:06:00,
2013-10-26 00:11:00,37.4,27.8,30.15,SSE,161,10.4,10.4,68,0.00,CLR,,0.00,WeatherDisplay:10.37,2013-10-26 05:11:00,
2013-10-26 00:16:00,37.3,27.7,30.15,SW,220,12.7,12.7,68,0.00,CLR,,0.00,WeatherDisplay:10.37,2013-10-26 05:16:00,
2013-10-26 00:22:00,37.3,27.7,30.15,SW,227,9.2,9.2,68,0.00,CLR,,0.00,WeatherDisplay:10.37,2013-10-26 05:22:00,
2013-10-26 00:27:00,37.0,27.4,30.15,SSE,159,4.6,4.6,68,0.00,CLR,,0.00,WeatherDisplay:10.37,2013-10-26 05:27:00,
2013-10-26 00:32:00,36.8,27.6,30.14,South,178,9.2,9.2,69,0.00,CLR,,0.00,WeatherDisplay:10.37,2013-10-26 05:32:00,
2013-10-26 00:37:00,36.7,27.5,30.15,SW,223,12.7,12.7,69,0.00,CLR,,0.00,WeatherDisplay:10.37,2013-10-26 05:37:00,
2013-10-26 00:42:00,36.6,27.4,30.14,SW,227,11.5,11.5,69,0.00,CLR,,0.00,WeatherDisplay:10.37,2013-10-26 05:42:00,
2013-10-26 00:47:00,36.5,27.3,30.14,SSW,210,11.5,11.5,69,0.00,CLR,,0.00,WeatherDisplay:10.37,2013-10-26 05:47:00,
2013-10-26 00:52:00,36.5,27.3,30.14,SW,219,11.5,11.5,69,0.00,CLR,,0.00,WeatherDisplay:10.37,2013-10-26 05:52:00,
2013-10-26 00:57:00,36.3,27.1,30.14,SW,217,11.5,11.5,69,0.00,CLR,,0.00,WeatherDisplay:10.37,2013-10-26 05:57:00,
2013-10-26 01:02:00,36.3,27.1,30.14,SSW,192,11.5,11.5,69,0.00,CLR,,0.00,WeatherDisplay:10.37,2013-10-26 06:02:00,
2013-10-26 01:07:00,36.1,26.9,30.14,SW,217,10.4,10.4,69,0.00,CLR,,0.00,WeatherDisplay:10.37,2013-10-26 06:07:00,
2013-10-26 01:12:00,36.1,27.3,30.14,SSE,158,9.0,9.0,70,0.00,CLR,,0.00,WeatherDisplay:10.37,2013-10-26 06:12:00,
2013-10-26 01:17:00,36.1,27.3,30.13,SSW,209,9.2,9.2,70,0.00,CLR,,0.00,WeatherDisplay:10.37,2013-10-26 06:17:00,
2013-10-26 01:22:00,36.2,27.0,30.12,SSW,202,11.5,11.5,69,0.00,CLR,,0.00,WeatherDisplay:10.37,2013-10-26 06:22:00,
2013-10-26 01:27:00,36.2,27.0,30.12,SW,219,12.7,12.7,69,0.00,CLR,,0.00,WeatherDisplay:10.37,2013-10-26 06:27:00,
2013-10-26 01:32:00,36.3,27.1,30.12,SW,217,9.2,9.2,69,0.00,CLR,,0.00,WeatherDisplay:10.37,2013-10-26 06:32:00,
2013-10-26 01:37:00,36.2,27.0,30.12,SW,226,11.5,11.5,69,0.00,CLR,,0.00,WeatherDisplay:10.37,2013-10-26 06:37:00,
2013-10-26 01:42:00,36.2,27.0,30.12,South,179,9.0,9.0,69,0.00,CLR,,0.00,WeatherDisplay:10.37,2013-10-26 06:42:00,
2013-10-26 01:47:00,36.2,27.0,30.12,South,184,11.5,11.5,69,0.00,CLR,,0.00,WeatherDisplay:10.37,2013-10-26 06:47:00,
2013-10-26 01:52:00,36.2,27.0,30.11,WSW,238,5.8,5.8,69,0.00,CLR,,0.00,WeatherDisplay:10.37,2013-10-26 06:52:00,
2013-10-26 01:57:00,36.0,26.8,30.11,SW,215,6.0,6.0,69,0.00,CLR,,0.00,WeatherDisplay:10.37,2013-10-26 06:57:00,
2013-10-26 02:02:00,36.0,26.8,30.11,SSW,198,13.8,13.8,69,0.00,CLR,,0.00,WeatherDisplay:10.37,2013-10-26 07:02:00,
2013-10-26 02:07:00,36.0,26.8,30.11,SW,219,8.1,8.1,69,0.00,CLR,,0.00,WeatherDisplay:10.37,2013-10-26 07:07:00,
2013-10-26 02:12:00,36.0,26.8,30.11,SW,214,9.2,9.2,69,0.00,CLR,,0.00,WeatherDisplay:10.37,2013-10-26 07:12:00,
2013-10-26 02:17:00,35.9,27.1,30.11,South,184,11.5,11.5,70,0.00,CLR,,0.00,WeatherDisplay:10.37,2013-10-26 07:17:00,
2013-10-26 02:22:00,36.0,27.2,30.11,SW,214,11.5,11.5,70,0.00,CLR,,0.00,WeatherDisplay:10.37,2013-10-26 07:22:00,
2013-10-26 02:27:00,36.1,26.9,30.11,SSW,209,9.2,9.2,69,0.00,CLR,,0.00,WeatherDisplay:10.37,2013-10-26 07:27:00,
2013-10-26 02:32:00,36.2,27.0,30.10,SSW,210,11.5,11.5,69,0.00,CLR,,0.00,WeatherDisplay:10.37,2013-10-26 07:32:00,
2013-10-26 02:37:00,36.2,27.0,30.10,SW,216,8.1,8.1,69,0.00,CLR,,0.00,WeatherDisplay:10.37,2013-10-26 07:37:00,
2013-10-26 02:42:00,36.3,27.1,30.10,SW,218,10.4,10.4,69,0.00,CLR,,0.00,WeatherDisplay:10.37,2013-10-26 07:42:00,
2013-10-26 02:47:00,36.4,27.2,30.10,South,190,6.9,6.9,69,0.00,CLR,,0.00,WeatherDisplay:10.37,2013-10-26 07:47:00,
2013-10-26 02:52:00,36.4,27.2,30.09,SSW,198,11.0,11.0,69,0.00,CLR,,0.00,WeatherDisplay:10.37,2013-10-26 07:52:00,
2013-10-26 02:57:00,36.4,27.2,30.09,SSW,197,10.4,10.4,69,0.00,CLR,,0.00,WeatherDisplay:10.37,2013-10-26 07:57:00,
2013-10-26 03:02:00,36.4,27.2,30.09,SW,220,10.4,10.4,69,0.00,CLR,,0.00,WeatherDisplay:10.37,2013-10-26 08:02:00,
2013-10-26 03:07:00,36.4,27.2,30.09,SW,223,11.5,11.5,69,0.00,CLR,,0.00,WeatherDisplay:10.37,2013-10-26 08:07:00,
2013-10-26 03:12:00,36.4,27.2,30.08,SSW,212,9.2,9.2,69,0.00,CLR,,0.00,WeatherDisplay:10.37,2013-10-26 08:12:00,
2013-10-26 03:17:00,36.4,27.2,30.08,SW,234,15.0,15.0,69,0.00,CLR,,0.00,WeatherDisplay:10.37,2013-10-26 08:17:00,
2013-10-26 03:22:00,36.5,27.3,30.08,South,178,13.8,13.8,69,0.00,CLR,,0.00,WeatherDisplay:10.37,2013-10-26 08:22:00,
2013-10-26 03:27:00,36.5,27.3,30.08,SSW,193,11.5,11.5,69,0.00,CLR,,0.00,WeatherDisplay:10.37,2013-10-26 08:27:00,
2013-10-26 03:32:00,36.7,27.5,30.08,SW,235,10.4,10.4,69,0.00,CLR,,0.00,WeatherDisplay:10.37,2013-10-26 08:32:00,
2013-10-26 03:37:00,36.6,27.4,30.08,SW,232,13.8,13.8,69,0.00,CLR,,0.00,WeatherDisplay:10.37,2013-10-26 08:37:00,
2013-10-26 03:42:00,36.6,27.4,30.08,SSW,201,9.2,9.2,69,0.00,CLR,,0.00,WeatherDisplay:10.37,2013-10-26 08:42:00,
2013-10-26 03:47:00,36.6,27.4,30.08,SSW,196,13.8,13.8,69,0.00,CLR,,0.00,WeatherDisplay:10.37,2013-10-26 08:47:00,
2013-10-26 03:52:00,36.5,27.3,30.08,South,189,11.5,11.5,69,0.00,CLR,,0.00,WeatherDisplay:10.37,2013-10-26 08:52:00,
2013-10-26 03:57:00,36.5,27.3,30.08,SW,219,10.4,10.4,69,0.00,CLR,,0.00,WeatherDisplay:10.37,2013-10-26 08:57:00,
2013-10-26 04:02:00,36.4,27.2,30.07,SW,227,11.5,11.5,69,0.00,CLR,,0.00,WeatherDisplay:10.37,2013-10-26 09:02:00,
2013-10-26 04:07:00,36.4,27.5,30.08,South,182,12.7,12.7,70,0.00,CLR,,0.00,WeatherDisplay:10.37,2013-10-26 09:07:00,
2013-10-26 04:12:00,36.3,27.4,30.07,SSW,202,11.5,11.5,70,0.00,CLR,,0.00,WeatherDisplay:10.37,2013-10-26 09:12:00,
2013-10-26 04:17:00,36.2,27.4,30.08,SSW,213,11.5,11.5,70,0.00,CLR,,0.00,WeatherDisplay:10.37,2013-10-26 09:17:00,
2013-10-26 04:22:00,36.2,27.4,30.07,SW,229,11.5,11.5,70,0.00,CLR,,0.00,WeatherDisplay:10.37,2013-10-26 09:22:00,
2013-10-26 04:27:00,36.2,27.4,30.07,WSW,242,12.7,12.7,70,0.00,CLR,,0.00,WeatherDisplay:10.37,2013-10-26 09:27:00,
2013-10-26 04:32:00,36.2,27.4,30.07,SW,222,10.4,10.4,70,0.00,CLR,,0.00,WeatherDisplay:10.37,2013-10-26 09:32:00,
2013-10-26 04:37:00,36.2,27.4,30.07,SSW,206,10.4,10.4,70,0.00,CLR,,0.00,WeatherDisplay:10.37,2013-10-26 09:37:00,
2013-10-26 04:42:00,36.3,27.4,30.06,South,186,10.4,10.4,70,0.00,CLR,,0.00,WeatherDisplay:10.37,2013-10-26 09:42:00,
2013-10-26 04:47:00,36.4,27.5,30.06,SW,216,9.2,9.2,70,0.00,CLR,,0.00,WeatherDisplay:10.37,2013-10-26 09:47:00,
2013-10-26 04:52:00,36.6,27.7,30.06,SW,214,13.8,13.8,70,0.00,CLR,,0.00,WeatherDisplay:10.37,2013-10-26 09:52:00,
2013-10-26 04:57:00,36.8,27.9,30.05,SW,219,12.7,12.7,70,0.00,CLR,,0.00,WeatherDisplay:10.37,2013-10-26 09:57:00,
2013-10-26 05:02:00,36.9,28.0,30.05,SW,227,13.8,13.8,70,0.00,CLR,,0.00,WeatherDisplay:10.37,2013-10-26 10:02:00,
2013-10-26 05:07:00,37.0,28.1,30.05,SW,234,14.0,14.0,70,0.00,CLR,,0.00,WeatherDisplay:10.37,2013-10-26 10:07:00,
2013-10-26 05:12:00,37.2,28.3,30.05,SW,217,10.4,10.4,70,0.00,CLR,,0.00,WeatherDisplay:10.37,2013-10-26 10:12:00,
2013-10-26 05:17:00,37.3,28.4,30.05,SW,232,11.5,11.5,70,0.00,CLR,,0.00,WeatherDisplay:10.37,2013-10-26 10:17:00,
2013-10-26 05:22:00,37.5,28.6,30.04,SW,225,11.0,11.0,70,0.00,CLR,,0.00,WeatherDisplay:10.37,2013-10-26 10:22:00,
2013-10-26 05:27:00,37.7,28.8,30.03,SW,217,15.0,15.0,70,0.00,CLR,,0.00,WeatherDisplay:10.37,2013-10-26 10:27:00,
2013-10-26 05:32:00,37.9,29.0,30.03,SW,217,13.8,13.8,70,0.00,CLR,,0.00,WeatherDisplay:10.37,2013-10-26 10:32:00,
2013-10-26 05:37:00,38.1,29.2,30.03,SSW,199,10.4,10.4,70,0.00,CLR,,0.00,WeatherDisplay:10.37,2013-10-26 10:37:00,
2013-10-26 05:42:00,38.4,29.1,30.03,SW,219,11.5,11.5,69,0.00,CLR,,0.00,WeatherDisplay:10.37,2013-10-26 10:42:00,
2013-10-26 05:47:00,38.6,29.3,30.02,SW,223,13.8,13.8,69,0.00,CLR,,0.00,WeatherDisplay:10.37,2013-10-26 10:47:00,
2013-10-26 05:52:00,38.8,29.5,30.02,South,172,10.4,10.4,69,0.00,CLR,,0.00,WeatherDisplay:10.37,2013-10-26 10:52:00,
2013-10-26 05:57:00,38.9,29.6,30.02,South,184,11.5,11.5,69,0.00,CLR,,0.00,WeatherDisplay:10.37,2013-10-26 10:57:00,
2013-10-26 06:02:00,39.0,29.7,30.02,WSW,237,11.5,11.5,69,0.00,CLR,,0.00,WeatherDisplay:10.37,2013-10-26 11:02:00,
2013-10-26 06:07:00,39.0,29.7,30.02,SSW,205,11.5,11.5,69,0.00,CLR,,0.00,WeatherDisplay:10.37,2013-10-26 11:07:00,
2013-10-26 06:12:00,39.1,29.8,30.02,SW,227,11.5,11.5,69,0.00,CLR,,0.00,WeatherDisplay:10.37,2013-10-26 11:12:00,
2013-10-26 06:17:00,39.1,29.8,30.01,SW,220,11.5,11.5,69,0.00,CLR,,0.00,WeatherDisplay:10.37,2013-10-26 11:17:00,
2013-10-26 06:22:00,39.2,29.9,30.01,SW,232,11.5,11.5,69,0.00,CLR,,0.00,WeatherDisplay:10.37,2013-10-26 11:22:00,
2013-10-26 06:27:00,39.3,30.0,30.01,SW,223,11.5,11.5,69,0.00,CLR,,0.00,WeatherDisplay:10.37,2013-10-26 11:27:00,
2013-10-26 06:32:00,39.4,30.1,30.01,South,190,11.5,11.5,69,0.00,CLR,,0.00,WeatherDisplay:10.37,2013-10-26 11:32:00,
2013-10-26 06:37:00,39.6,29.9,30.00,SW,215,12.7,12.7,68,0.00,CLR,,0.00,WeatherDisplay:10.37,2013-10-26 11:37:00,
2013-10-26 06:42:00,39.8,30.1,30.00,SSW,209,15.0,15.0,68,0.00,CLR,,0.00,WeatherDisplay:10.37,2013-10-26 11:42:00,
2013-10-26 06:47:00,39.9,30.2,30.00,SW,222,14.0,14.0,68,0.00,CLR,,0.00,WeatherDisplay:10.37,2013-10-26 11:47:00,
2013-10-26 06:52:00,40.0,30.3,30.00,SW,218,9.2,10.6,68,0.00,CLR,,0.00,WeatherDisplay:10.37,2013-10-26 11:52:00,
2013-10-26 06:57:00,40.1,30.4,30.00,SW,222,15.0,15.0,68,0.00,CLR,,0.00,WeatherDisplay:10.37,2013-10-26 11:57:00,
2013-10-26 07:02:00,40.1,30.4,30.00,SE,132,12.7,12.7,68,0.00,CLR,,0.00,WeatherDisplay:10.37,2013-10-26 12:02:00,
2013-10-26 07:07:00,40.2,30.5,30.00,SW,236,10.4,10.4,68,0.00,CLR,,0.00,WeatherDisplay:10.37,2013-10-26 12:07:00,
2013-10-26 07:12:00,40.3,30.6,30.00,WSW,244,12.7,12.7,68,0.00,CLR,,0.00,WeatherDisplay:10.37,2013-10-26 12:12:00,
2013-10-26 07:17:00,40.4,30.7,30.00,SW,233,11.5,11.5,68,0.00,CLR,,0.00,WeatherDisplay:10.37,2013-10-26 12:17:00,
2013-10-26 07:22:00,40.5,30.8,29.99,SW,222,12.7,12.7,68,0.00,CLR,,0.00,WeatherDisplay:10.37,2013-10-26 12:22:00,
2013-10-26 07:27:00,40.6,30.9,29.99,SW,218,12.7,12.7,68,0.00,CLR,,0.00,WeatherDisplay:10.37,2013-10-26 12:27:00,
2013-10-26 07:32:00,40.7,31.0,29.99,SW,215,12.7,12.7,68,0.00,CLR,,0.00,WeatherDisplay:10.37,2013-10-26 12:32:00,
2013-10-26 07:37:00,40.8,31.1,29.99,South,178,11.5,11.5,68,0.00,CLR,,0.00,WeatherDisplay:10.37,2013-10-26 12:37:00,
2013-10-26 07:42:00,40.9,31.1,29.98,SW,227,11.5,11.5,68,0.00,CLR,,0.00,WeatherDisplay:10.37,2013-10-26 12:42:00,
2013-10-26 07:47:00,41.0,31.2,29.98,South,189,16.1,16.1,68,0.00,CLR,,0.00,WeatherDisplay:10.37,2013-10-26 12:47:00,
2013-10-26 07:52:00,41.1,31.3,29.98,SW,219,11.5,11.5,68,0.00,CLR,,0.00,WeatherDisplay:10.37,2013-10-26 12:52:00,
2013-10-26 07:57:00,41.2,31.4,29.99,SW,226,10.4,10.4,68,0.00,CLR,,0.00,WeatherDisplay:10.37,2013-10-26 12:57:00,
2013-10-26 08:02:00,41.4,31.6,29.98,SSW,198,13.8,13.8,68,0.00,CLR,,0.00,WeatherDisplay:10.37,2013-10-26 13:02:00,
2013-10-26 08:07:00,41.4,31.6,29.98,SSW,210,12.7,12.7,68,0.00,CLR,,0.00,WeatherDisplay:10.37,2013-10-26 13:07:00,
2013-10-26 08:12:00,41.5,31.4,29.98,SW,228,15.0,15.0,67,0.00,CLR,,0.00,WeatherDisplay:10.37,2013-10-26 13:12:00,
2013-10-26 08:17:00,41.5,31.7,29.98,SSW,195,11.5,11.5,68,0.00,CLR,,0.00,WeatherDisplay:10.37,2013-10-26 13:17:00,
2013-10-26 08:22:00,41.5,31.7,29.98,South,187,12.7,12.7,68,0.00,CLR,,0.00,WeatherDisplay:10.37,2013-10-26 13:22:00,
2013-10-26 08:27:00,41.5,31.7,29.97,SSE,167,11.5,11.5,68,0.00,CLR,,0.00,WeatherDisplay:10.37,2013-10-26 13:27:00,
2013-10-26 08:33:00,41.5,31.7,29.98,SW,236,12.0,12.0,68,0.00,CLR,,0.00,WeatherDisplay:10.37,2013-10-26 13:33:00,
2013-10-26 08:38:00,41.5,31.7,29.98,SSW,203,9.2,9.2,68,0.00,CLR,,0.00,WeatherDisplay:10.37,2013-10-26 13:38:00,
2013-10-26 08:43:00,41.5,31.7,29.97,SW,226,19.6,19.6,68,0.00,CLR,,0.00,WeatherDisplay:10.37,2013-10-26 13:43:00,
2013-10-26 08:48:00,41.6,31.8,29.97,SW,225,15.0,15.0,68,0.00,CLR,,0.00,WeatherDisplay:10.37,2013-10-26 13:48:00,
2013-10-26 08:53:00,41.7,31.9,29.97,SSW,205,15.0,15.0,68,0.00,CLR,,0.00,WeatherDisplay:10.37,2013-10-26 13:53:00,
2013-10-26 08:58:00,41.8,32.0,29.96,SW,223,14.0,14.0,68,0.00,CLR,,0.00,WeatherDisplay:10.37,2013-10-26 13:58:00,
2013-10-26 09:03:00,41.9,32.1,29.96,SSW,196,12.0,12.0,68,0.00,CLR,,0.00,WeatherDisplay:10.37,2013-10-26 14:03:00,
2013-10-26 09:08:00,42.1,32.3,29.96,WSW,244,11.5,11.5,68,0.00,CLR,,0.00,WeatherDisplay:10.37,2013-10-26 14:08:00,
2013-10-26 09:13:00,42.2,32.4,29.95,South,175,10.4,10.4,68,0.00,CLR,,0.00,WeatherDisplay:10.37,2013-10-26 14:13:00,
2013-10-26 09:18:00,42.2,32.4,29.96,SW,223,12.0,12.0,68,0.00,CLR,,0.00,WeatherDisplay:10.37,2013-10-26 14:18:00,
2013-10-26 09:23:00,42.4,32.6,29.96,South,187,10.4,10.4,68,0.00,CLR,,0.00,WeatherDisplay:10.37,2013-10-26 14:23:00,
2013-10-26 09:28:00,42.7,32.9,29.96,SSE,162,9.2,9.2,68,0.00,CLR,,0.00,WeatherDisplay:10.37,2013-10-26 14:28:00,
2013-10-26 09:33:00,43.0,33.2,29.96,SW,236,12.7,12.7,68,0.00,CLR,,0.00,WeatherDisplay:10.37,2013-10-26 14:33:00,
2013-10-26 09:38:00,43.3,33.4,29.95,SW,236,12.7,12.7,68,0.00,CLR,,0.00,WeatherDisplay:10.37,2013-10-26 14:38:00,
2013-10-26 09:43:00,43.5,33.3,29.96,SW,225,6.9,6.9,67,0.00,CLR,,0.00,WeatherDisplay:10.37,2013-10-26 14:43:00,
2013-10-26 09:48:00,43.7,33.5,29.96,SW,231,12.7,12.7,67,0.00,CLR,,0.00,WeatherDisplay:10.37,2013-10-26 14:48:00,
2013-10-26 09:53:00,43.7,33.5,29.95,SW,221,12.7,12.7,67,0.00,CLR,,0.00,WeatherDisplay:10.37,2013-10-26 14:53:00,
2013-10-26 09:58:00,44.4,34.1,29.95,WSW,246,13.0,13.0,67,0.00,CLR,,0.00,WeatherDisplay:10.37,2013-10-26 14:58:00,
2013-10-26 10:03:00,45.2,34.9,29.95,SW,226,13.0,13.0,67,0.00,CLR,,0.00,WeatherDisplay:10.37,2013-10-26 15:03:00,
2013-10-26 10:08:00,45.7,35.0,29.95,WSW,239,13.8,13.8,66,0.00,CLR,,0.00,WeatherDisplay:10.37,2013-10-26 15:08:00,
2013-10-26 10:13:00,46.2,35.5,29.95,WSW,246,11.5,11.5,66,0.00,CLR,,0.00,WeatherDisplay:10.37,2013-10-26 15:13:00,
2013-10-26 10:18:00,46.7,35.6,29.95,SSW,205,18.4,18.4,65,0.00,CLR,,0.00,WeatherDisplay:10.37,2013-10-26 15:18:00,
2013-10-26 10:23:00,47.1,35.5,29.95,SSW,213,14.0,14.0,64,0.00,CLR,,0.00,WeatherDisplay:10.37,2013-10-26 15:23:00,
2013-10-26 10:28:00,47.8,36.2,29.95,WSW,252,12.7,12.7,64,0.00,CLR,,0.00,WeatherDisplay:10.37,2013-10-26 15:28:00,
2013-10-26 10:33:00,48.1,36.5,29.95,West,265,11.5,11.5,64,0.00,CLR,,0.00,WeatherDisplay:10.37,2013-10-26 15:33:00,
2013-10-26 10:38:00,48.7,37.1,29.94,WSW,249,10.4,10.4,64,0.00,CLR,,0.00,WeatherDisplay:10.37,2013-10-26 15:38:00,
2013-10-26 10:43:00,49.0,36.9,29.94,SW,234,15.0,15.0,63,0.00,CLR,,0.00,WeatherDisplay:10.37,2013-10-26 15:43:00,
2013-10-26 10:48:00,49.2,36.7,29.93,WSW,252,15.0,15.0,62,0.00,CLR,,0.00,WeatherDisplay:10.37,2013-10-26 15:48:00,
2013-10-26 10:53:00,49.6,37.1,29.93,SW,221,12.7,12.7,62,0.00,CLR,,0.00,WeatherDisplay:10.37,2013-10-26 15:53:00,
2013-10-26 10:58:00,49.8,37.3,29.93,WSW,257,18.4,18.4,62,0.00,CLR,,0.00,WeatherDisplay:10.37,2013-10-26 15:58:00,
2013-10-26 11:03:00,50.3,37.8,29.93,WSW,257,16.1,16.1,62,0.00,CLR,,0.00,WeatherDisplay:10.37,2013-10-26 16:03:00,
2013-10-26 11:08:00,50.6,37.6,29.93,WSW,249,14.0,14.0,61,0.00,CLR,,0.00,WeatherDisplay:10.37,2013-10-26 16:08:00,
2013-10-26 11:13:00,51.1,38.1,29.93,NW,323,10.4,10.4,61,0.00,CLR,,0.00,WeatherDisplay:10.37,2013-10-26 16:13:00,
2013-10-26 11:18:00,51.7,38.7,29.93,WSW,248,20.7,20.7,61,0.00,CLR,,0.00,WeatherDisplay:10.37,2013-10-26 16:18:00,
2013-10-26 11:23:00,51.8,37.9,29.93,SW,231,13.8,13.8,59,0.00,CLR,,0.00,WeatherDisplay:10.37,2013-10-26 16:23:00,
2013-10-26 11:28:00,52.2,38.7,29.92,West,260,11.5,11.5,60,0.00,CLR,,0.00,WeatherDisplay:10.37,2013-10-26 16:28:00,
2013-10-26 11:33:00,52.3,38.4,29.92,WSW,243,19.6,19.6,59,0.00,CLR,,0.00,WeatherDisplay:10.37,2013-10-26 16:33:00,
2013-10-26 11:38:00,52.2,38.3,29.92,West,280,12.7,12.7,59,0.00,CLR,,0.00,WeatherDisplay:10.37,2013-10-26 16:38:00,
2013-10-26 11:43:00,52.1,38.6,29.92,WSW,246,18.4,18.4,60,0.00,CLR,,0.00,WeatherDisplay:10.37,2013-10-26 16:43:00,
2013-10-26 11:48:00,52.4,38.9,29.92,West,261,13.8,13.8,60,0.00,CLR,,0.00,WeatherDisplay:10.37,2013-10-26 16:48:00,
2013-10-26 11:53:00,53.4,39.4,29.92,WSW,246,11.5,11.5,59,0.00,CLR,,0.00,WeatherDisplay:10.37,2013-10-26 16:53:00,
2013-10-26 11:58:00,54.2,39.7,29.92,West,265,22.0,22.0,58,0.00,CLR,,0.00,WeatherDisplay:10.37,2013-10-26 16:58:00,
2013-10-26 12:03:00,54.6,39.7,29.92,NW,308,17.3,17.3,57,0.00,CLR,,0.00,WeatherDisplay:10.37,2013-10-26 17:03:00,
2013-10-26 12:08:00,53.9,39.0,29.92,West,259,18.4,18.4,57,0.00,CLR,,0.00,WeatherDisplay:10.37,2013-10-26 17:08:00,
2013-10-26 12:13:00,53.6,39.2,29.92,SW,223,19.6,19.6,58,0.00,CLR,,0.00,WeatherDisplay:10.37,2013-10-26 17:13:00,
2013-10-26 12:18:00,53.2,39.2,29.91,WSW,248,16.1,16.1,59,0.00,CLR,,0.00,WeatherDisplay:10.37,2013-10-26 17:18:00,
2013-10-26 12:23:00,53.1,39.1,29.91,West,267,18.4,18.4,59,0.00,CLR,,0.00,WeatherDisplay:10.37,2013-10-26 17:23:00,
2013-10-26 12:28:00,53.0,39.0,29.91,West,262,12.7,12.7,59,0.00,CLR,,0.00,WeatherDisplay:10.37,2013-10-26 17:28:00,
2013-10-26 12:33:00,53.1,39.6,29.91,WSW,250,11.5,11.5,60,0.00,CLR,,0.00,WeatherDisplay:10.37,2013-10-26 17:33:00,
2013-10-26 12:38:00,54.0,40.0,29.91,WSW,246,16.0,16.0,59,0.00,CLR,,0.00,WeatherDisplay:10.37,2013-10-26 17:38:00,
2013-10-26 12:43:00,54.7,39.8,29.91,NW,306,13.8,13.8,57,0.00,CLR,,0.00,WeatherDisplay:10.37,2013-10-26 17:43:00,
2013-10-26 12:48:00,55.2,39.8,29.91,West,276,18.4,18.4,56,0.00,CLR,,0.00,WeatherDisplay:10.37,2013-10-26 17:48:00,
2013-10-26 12:53:00,55.6,40.1,29.91,West,272,17.3,17.3,56,0.00,CLR,,0.00,WeatherDisplay:10.37,2013-10-26 17:53:00,
2013-10-26 12:58:00,55.9,40.4,29.90,WNW,290,21.9,21.9,56,0.00,CLR,,0.00,WeatherDisplay:10.37,2013-10-26 17:58:00,
2013-10-26 13:03:00,55.6,40.1,29.91,WNW,294,20.7,20.7,56,0.00,CLR,,0.00,WeatherDisplay:10.37,2013-10-26 18:03:00,
2013-10-26 13:08:00,55.8,40.8,29.90,West,273,17.3,17.3,57,0.00,CLR,,0.00,WeatherDisplay:10.37,2013-10-26 18:08:00,
2013-10-26 13:13:00,55.9,40.0,29.89,NNW,331,21.0,21.0,55,0.00,CLR,,0.00,WeatherDisplay:10.37,2013-10-26 18:13:00,
2013-10-26 13:18:00,56.2,40.2,29.89,WNW,294,18.4,18.4,55,0.00,CLR,,0.00,WeatherDisplay:10.37,2013-10-26 18:18:00,
2013-10-26 13:23:00,56.5,40.5,29.89,WNW,298,16.1,16.1,55,0.00,CLR,,0.00,WeatherDisplay:10.37,2013-10-26 18:23:00,
2013-10-26 13:28:00,56.8,40.3,29.89,West,278,14.0,14.0,54,0.00,CLR,,0.00,WeatherDisplay:10.37,2013-10-26 18:28:00,
2013-10-26 13:33:00,56.9,40.9,29.89,West,277,17.3,17.3,55,0.00,CLR,,0.00,WeatherDisplay:10.37,2013-10-26 18:33:00,
2013-10-26 13:38:00,56.8,40.3,29.89,West,280,27.6,27.6,54,0.00,CLR,,0.00,WeatherDisplay:10.37,2013-10-26 18:38:00,
2013-10-26 13:43:00,56.9,40.9,29.89,West,276,11.5,11.5,55,0.00,CLR,,0.00,WeatherDisplay:10.37,2013-10-26 18:43:00,
2013-10-26 13:48:00,57.5,41.0,29.89,WSW,252,11.5,11.5,54,0.00,CLR,,0.00,WeatherDisplay:10.37,2013-10-26 18:48:00,
2013-10-26 13:53:00,58.1,40.6,29.89,West,269,17.3,17.3,52,0.00,CLR,,0.00,WeatherDisplay:10.37,2013-10-26 18:53:00,
2013-10-26 13:58:00,57.5,40.5,29.89,SSW,211,16.1,16.1,53,0.00,CLR,,0.00,WeatherDisplay:10.37,2013-10-26 18:58:00,
2013-10-26 14:03:00,56.9,40.4,29.89,WNW,285,10.4,10.4,54,0.00,CLR,,0.00,WeatherDisplay:10.37,2013-10-26 19:03:00,
2013-10-26 14:08:00,56.5,40.0,29.89,West,262,15.0,15.0,54,0.00,CLR,,0.00,WeatherDisplay:10.37,2013-10-26 19:08:00,
2013-10-26 14:13:00,56.2,40.2,29.89,West,281,12.7,12.7,55,0.00,CLR,,0.00,WeatherDisplay:10.37,2013-10-26 19:13:00,
2013-10-26 14:18:00,56.3,40.3,29.89,WNW,300,10.4,10.4,55,0.00,CLR,,0.00,WeatherDisplay:10.37,2013-10-26 19:18:00,
2013-10-26 14:23:00,56.4,40.4,29.90,West,276,12.7,12.7,55,0.00,CLR,,0.00,WeatherDisplay:10.37,2013-10-26 19:23:00,
2013-10-26 14:28:00,56.5,40.5,29.90,NW,318,12.7,12.7,55,0.00,CLR,,0.00,WeatherDisplay:10.37,2013-10-26 19:28:00,
2013-10-26 14:33:00,56.6,40.1,29.90,West,273,18.0,18.0,54,0.00,CLR,,0.00,WeatherDisplay:10.37,2013-10-26 19:33:00,
2013-10-26 14:38:00,56.6,40.1,29.90,WNW,296,14.0,14.0,54,0.00,CLR,,0.00,WeatherDisplay:10.37,2013-10-26 19:38:00,
2013-10-26 14:43:00,56.7,39.7,29.90,WNW,300,14.0,14.0,53,0.00,CLR,,0.00,WeatherDisplay:10.37,2013-10-26 19:43:00,
2013-10-26 14:48:00,56.4,39.5,29.90,West,281,13.8,13.8,53,0.00,CLR,,0.00,WeatherDisplay:10.37,2013-10-26 19:48:00,
2013-10-26 14:53:00,56.4,39.5,29.91,WNW,284,11.5,11.5,53,0.00,CLR,,0.00,WeatherDisplay:10.37,2013-10-26 19:53:00,
2013-10-26 14:58:00,56.2,39.3,29.91,WNW,296,14.0,14.0,53,0.00,CLR,,0.00,WeatherDisplay:10.37,2013-10-26 19:58:00,
2013-10-26 15:03:00,56.0,38.6,29.91,NW,316,13.8,13.8,52,0.00,CLR,,0.00,WeatherDisplay:10.37,2013-10-26 20:03:00,
2013-10-26 15:08:00,56.0,38.6,29.91,WNW,298,17.0,17.0,52,0.00,CLR,,0.00,WeatherDisplay:10.37,2013-10-26 20:08:00,
2013-10-26 15:13:00,56.0,38.6,29.92,NW,316,20.7,20.7,52,0.00,CLR,,0.00,WeatherDisplay:10.37,2013-10-26 20:13:00,
2013-10-26 15:18:00,56.3,38.9,29.92,WNW,299,15.0,15.0,52,0.00,CLR,,0.00,WeatherDisplay:10.37,2013-10-26 20:18:00,
2013-10-26 15:23:00,56.2,38.8,29.92,WNW,297,17.3,17.3,52,0.00,CLR,,0.00,WeatherDisplay:10.37,2013-10-26 20:23:00,
2013-10-26 15:28:00,55.9,38.5,29.92,WNW,302,16.1,16.1,52,0.00,CLR,,0.00,WeatherDisplay:10.37,2013-10-26 20:28:00,
2013-10-26 15:33:00,55.9,39.0,29.92,NW,325,14.0,14.0,53,0.00,CLR,,0.00,WeatherDisplay:10.37,2013-10-26 20:33:00,
2013-10-26 15:38:00,55.7,37.8,29.93,NW,317,15.0,15.0,51,0.00,CLR,,0.00,WeatherDisplay:10.37,2013-10-26 20:38:00,
2013-10-26 15:43:00,55.5,37.7,29.93,WNW,292,15.0,15.0,51,0.00,CLR,,0.00,WeatherDisplay:10.37,2013-10-26 20:43:00,
2013-10-26 15:48:00,55.5,37.7,29.93,WNW,303,16.1,16.1,51,0.00,CLR,,0.00,WeatherDisplay:10.37,2013-10-26 20:48:00,
2013-10-26 15:53:00,55.5,36.6,29.93,NW,323,19.6,19.6,49,0.00,CLR,,0.00,WeatherDisplay:10.37,2013-10-26 20:53:00,
2013-10-26 15:58:00,55.8,36.9,29.93,WNW,287,19.6,19.6,49,0.00,CLR,,0.00,WeatherDisplay:10.37,2013-10-26 20:58:00,
2013-10-26 16:03:00,55.7,36.3,29.93,NNW,331,11.5,11.5,48,0.00,CLR,,0.00,WeatherDisplay:10.37,2013-10-26 21:03:00,
2013-10-26 16:08:00,55.5,36.1,29.93,WNW,302,11.5,11.5,48,0.00,CLR,,0.00,WeatherDisplay:10.37,2013-10-26 21:08:00,
2013-10-26 16:13:00,55.7,36.8,29.93,NW,309,13.8,13.8,49,0.00,CLR,,0.00,WeatherDisplay:10.37,2013-10-26 21:13:00,
2013-10-26 16:18:00,56.1,37.2,29.94,NW,326,5.8,5.8,49,0.00,CLR,,0.00,WeatherDisplay:10.37,2013-10-26 21:18:00,
2013-10-26 16:23:00,56.3,36.8,29.94,NNW,329,11.5,11.5,48,0.00,CLR,,0.00,WeatherDisplay:10.37,2013-10-26 21:23:00,
2013-10-26 16:28:00,56.1,37.2,29.94,NW,324,5.0,5.0,49,0.00,CLR,,0.00,WeatherDisplay:10.37,2013-10-26 21:28:00,
2013-10-26 16:33:00,55.8,35.3,29.94,WNW,299,11.5,11.5,46,0.00,CLR,,0.00,WeatherDisplay:10.37,2013-10-26 21:33:00,
2013-10-26 16:38:00,55.3,34.9,29.94,NNW,336,13.8,13.8,46,0.00,CLR,,0.00,WeatherDisplay:10.37,2013-10-26 21:38:00,
2013-10-26 16:43:00,55.1,34.7,29.95,NW,313,11.5,11.5,46,0.00,CLR,,0.00,WeatherDisplay:10.37,2013-10-26 21:43:00,
2013-10-26 16:48:00,55.0,34.6,29.95,NW,322,17.3,17.3,46,0.00,CLR,,0.00,WeatherDisplay:10.37,2013-10-26 21:48:00,
2013-10-26 16:53:00,54.7,34.3,29.95,NNW,333,10.4,10.4,46,0.00,CLR,,0.00,WeatherDisplay:10.37,2013-10-26 21:53:00,
2013-10-26 16:58:00,54.4,33.5,29.95,NW,321,5.8,5.8,45,0.00,CLR,,0.00,WeatherDisplay:10.37,2013-10-26 21:58:00,
2013-10-26 17:03:00,54.0,33.1,29.96,NW,314,18.4,18.4,45,0.00,CLR,,0.00,WeatherDisplay:10.37,2013-10-26 22:03:00,
2013-10-26 17:08:00,53.6,32.8,29.96,NW,322,18.4,18.4,45,0.00,CLR,,0.00,WeatherDisplay:10.37,2013-10-26 22:08:00,
2013-10-26 17:13:00,53.3,32.5,29.96,NNW,329,11.5,11.5,45,0.00,CLR,,0.00,WeatherDisplay:10.37,2013-10-26 22:13:00,
2013-10-26 17:18:00,53.0,32.2,29.96,NW,313,16.1,16.1,45,0.00,CLR,,0.00,WeatherDisplay:10.37,2013-10-26 22:18:00,
2013-10-26 17:23:00,52.8,32.0,29.96,WNW,299,10.4,10.4,45,0.00,CLR,,0.00,WeatherDisplay:10.37,2013-10-26 22:23:00,
2013-10-26 17:29:00,52.5,32.3,29.97,NW,307,10.4,10.4,46,0.00,CLR,,0.00,WeatherDisplay:10.37,2013-10-26 22:29:00,
2013-10-26 17:34:00,52.3,32.1,29.97,NNW,334,8.1,8.1,46,0.00,CLR,,0.00,WeatherDisplay:10.37,2013-10-26 22:34:00,
2013-10-26 17:39:00,51.9,31.7,29.97,NNW,346,11.5,11.5,46,0.00,CLR,,0.00,WeatherDisplay:10.37,2013-10-26 22:39:00,
2013-10-26 17:44:00,51.6,31.5,29.98,NW,322,13.8,13.8,46,0.00,CLR,,0.00,WeatherDisplay:10.37,2013-10-26 22:44:00,
2013-10-26 17:49:00,51.4,31.8,29.98,NW,314,6.9,6.9,47,0.00,CLR,,0.00,WeatherDisplay:10.37,2013-10-26 22:49:00,
2013-10-26 17:54:00,51.0,32.0,29.98,NNW,331,11.5,11.5,48,0.00,CLR,,0.00,WeatherDisplay:10.37,2013-10-26 22:54:00,
2013-10-26 17:59:00,50.8,32.3,29.98,NNW,327,9.2,9.2,49,0.00,CLR,,0.00,WeatherDisplay:10.37,2013-10-26 22:59:00,
2013-10-26 18:04:00,50.4,32.4,29.98,NW,321,0.0,0.0,50,0.00,CLR,,0.00,WeatherDisplay:10.37,2013-10-26 23:04:00,
2013-10-26 18:09:00,50.1,32.2,29.99,NW,317,8.0,8.0,50,0.00,CLR,,0.00,WeatherDisplay:10.37,2013-10-26 23:09:00,
2013-10-26 18:14:00,49.8,32.4,29.99,NW,325,1.2,0.0,51,0.00,CLR,,0.00,WeatherDisplay:10.37,2013-10-26 23:14:00,
2013-10-26 18:19:00,49.6,32.7,30.00,NW,323,0.0,0.0,52,0.00,CLR,,0.00,WeatherDisplay:10.37,2013-10-26 23:19:00,
2013-10-26 18:24:00,49.2,32.8,30.00,NW,313,1.2,1.2,53,0.00,CLR,,0.00,WeatherDisplay:10.37,2013-10-26 23:24:00,
2013-10-26 18:29:00,49.0,32.6,30.00,NW,315,1.2,1.2,53,0.00,CLR,,0.00,WeatherDisplay:10.37,2013-10-26 23:29:00,
2013-10-26 18:34:00,48.8,32.9,30.00,NW,318,0.0,0.0,54,0.00,CLR,,0.00,WeatherDisplay:10.37,2013-10-26 23:34:00,
2013-10-26 18:39:00,48.4,33.0,30.00,NW,313,0.0,0.0,55,0.00,CLR,,0.00,WeatherDisplay:10.37,2013-10-26 23:39:00,
2013-10-26 18:44:00,48.1,33.1,30.00,NW,313,0.0,0.0,56,0.00,CLR,,0.00,WeatherDisplay:10.37,2013-10-26 23:44:00,
2013-10-26 18:49:00,47.7,32.8,30.01,NW,313,0.0,0.0,56,0.00,CLR,,0.00,WeatherDisplay:10.37,2013-10-26 23:49:00,
2013-10-26 18:54:00,47.5,33.0,30.01,NW,313,0.0,0.0,57,0.00,CLR,,0.00,WeatherDisplay:10.37,2013-10-26 23:54:00,
2013-10-26 18:59:00,47.2,33.2,30.01,NW,313,0.0,0.0,58,0.00,CLR,,0.00,WeatherDisplay:10.37,2013-10-26 23:59:00,
2013-10-26 19:04:00,47.0,33.0,30.01,NW,313,0.0,0.0,58,0.00,CLR,,0.00,WeatherDisplay:10.37,2013-10-27 00:04:00,
2013-10-26 19:09:00,46.8,33.2,30.01,NW,313,0.0,0.0,59,0.00,CLR,,0.00,WeatherDisplay:10.37,2013-10-27 00:09:00,
2013-10-26 19:14:00,46.6,33.0,30.01,NW,313,0.0,0.0,59,0.00,CLR,,0.00,WeatherDisplay:10.37,2013-10-27 00:14:00,
2013-10-26 19:19:00,46.3,33.2,30.01,NW,313,0.0,0.0,60,0.00,CLR,,0.00,WeatherDisplay:10.37,2013-10-27 00:19:00,
2013-10-26 19:24:00,46.1,33.4,30.01,NW,313,0.0,0.0,61,0.00,CLR,,0.00,WeatherDisplay:10.37,2013-10-27 00:24:00,
2013-10-26 19:29:00,45.9,33.2,30.01,NW,313,0.0,0.0,61,0.00,CLR,,0.00,WeatherDisplay:10.37,2013-10-27 00:29:00,
2013-10-26 19:34:00,45.8,33.5,30.02,NW,313,0.0,0.0,62,0.00,CLR,,0.00,WeatherDisplay:10.37,2013-10-27 00:34:00,
2013-10-26 19:39:00,45.4,33.5,30.02,NW,313,0.0,0.0,63,0.00,CLR,,0.00,WeatherDisplay:10.37,2013-10-27 00:39:00,
2013-10-26 19:44:00,45.1,33.6,30.02,NW,313,0.0,0.0,64,0.00,CLR,,0.00,WeatherDisplay:10.37,2013-10-27 00:44:00,
2013-10-26 19:49:00,44.9,33.5,30.02,NW,313,0.0,0.0,64,0.00,CLR,,0.00,WeatherDisplay:10.37,2013-10-27 00:49:00,
2013-10-26 19:54:00,44.5,33.5,30.03,NW,313,0.0,0.0,65,0.00,CLR,,0.00,WeatherDisplay:10.37,2013-10-27 00:54:00,
2013-10-26 19:59:00,44.2,33.6,30.03,NW,313,0.0,0.0,66,0.00,CLR,,0.00,WeatherDisplay:10.37,2013-10-27 00:59:00,
2013-10-26 20:04:00,44.0,33.4,30.03,NW,313,0.0,0.0,66,0.00,CLR,,0.00,WeatherDisplay:10.37,2013-10-27 01:04:00,
2013-10-26 20:09:00,43.8,33.6,30.03,NW,313,0.0,0.0,67,0.00,CLR,,0.00,WeatherDisplay:10.37,2013-10-27 01:09:00,
2013-10-26 20:14:00,43.7,33.5,30.03,NW,313,0.0,0.0,67,0.00,CLR,,0.00,WeatherDisplay:10.37,2013-10-27 01:14:00,
2013-10-26 20:19:00,43.4,33.2,30.03,NW,313,0.0,0.0,67,0.00,CLR,,0.00,WeatherDisplay:10.37,2013-10-27 01:19:00,
2013-10-26 20:24:00,43.2,33.3,30.03,NW,313,0.0,0.0,68,0.00,CLR,,0.00,WeatherDisplay:10.37,2013-10-27 01:24:00,
2013-10-26 20:29:00,43.0,33.2,30.03,NW,313,0.0,0.0,68,0.00,CLR,,0.00,WeatherDisplay:10.37,2013-10-27 01:29:00,
2013-10-26 20:34:00,42.8,33.0,30.03,NW,313,0.0,0.0,68,0.00,CLR,,0.00,WeatherDisplay:10.37,2013-10-27 01:34:00,
2013-10-26 20:39:00,42.4,32.6,30.04,NW,313,0.0,0.0,68,0.00,CLR,,0.00,WeatherDisplay:10.37,2013-10-27 01:39:00,
2013-10-26 20:44:00,42.0,32.6,30.04,NW,313,0.0,0.0,69,0.00,CLR,,0.00,WeatherDisplay:10.37,2013-10-27 01:44:00,
2013-10-26 20:49:00,41.6,32.2,30.04,NW,313,0.0,0.0,69,0.00,CLR,,0.00,WeatherDisplay:10.37,2013-10-27 01:49:00,
2013-10-26 20:54:00,41.3,32.2,30.04,NW,313,0.0,0.0,70,0.00,CLR,,0.00,WeatherDisplay:10.37,2013-10-27 01:54:00,
2013-10-26 20:59:00,41.0,32.0,30.04,NW,313,0.0,0.0,70,0.00,CLR,,0.00,WeatherDisplay:10.37,2013-10-27 01:59:00,
2013-10-26 21:04:00,40.6,31.6,30.04,NW,313,0.0,0.0,70,0.00,CLR,,0.00,WeatherDisplay:10.37,2013-10-27 02:04:00,
2013-10-26 21:09:00,40.3,31.3,30.05,NW,313,0.0,0.0,70,0.00,CLR,,0.00,WeatherDisplay:10.37,2013-10-27 02:09:00,
2013-10-26 21:14:00,40.2,31.2,30.05,NW,313,0.0,0.0,70,0.00,CLR,,0.00,WeatherDisplay:10.37,2013-10-27 02:14:00,
2013-10-26 21:19:00,40.2,31.2,30.05,NW,313,0.0,0.0,70,0.00,CLR,,0.00,WeatherDisplay:10.37,2013-10-27 02:19:00,
2013-10-26 21:24:00,40.1,31.1,30.05,NW,313,0.0,0.0,70,0.00,CLR,,0.00,WeatherDisplay:10.37,2013-10-27 02:24:00,
2013-10-26 21:29:00,40.0,31.0,30.05,NW,313,0.0,0.0,70,0.00,CLR,,0.00,WeatherDisplay:10.37,2013-10-27 02:29:00,
2013-10-26 21:34:00,39.8,30.8,30.05,NW,313,0.0,0.0,70,0.00,CLR,,0.00,WeatherDisplay:10.37,2013-10-27 02:34:00,
2013-10-26 21:39:00,39.7,30.7,30.05,NW,313,0.0,0.0,70,0.00,CLR,,0.00,WeatherDisplay:10.37,2013-10-27 02:39:00,
2013-10-26 21:44:00,39.7,30.7,30.06,NW,313,0.0,0.0,70,0.00,CLR,,0.00,WeatherDisplay:10.37,2013-10-27 02:44:00,
2013-10-26 21:49:00,39.6,30.6,30.06,NW,313,0.0,0.0,70,0.00,CLR,,0.00,WeatherDisplay:10.37,2013-10-27 02:49:00,
2013-10-26 21:54:00,39.4,30.4,30.06,NW,313,0.0,0.0,70,0.00,CLR,,0.00,WeatherDisplay:10.37,2013-10-27 02:54:00,
2013-10-26 21:59:00,39.2,29.9,30.06,NW,313,0.0,0.0,69,0.00,CLR,,0.00,WeatherDisplay:10.37,2013-10-27 02:59:00,
2013-10-26 22:04:00,39.0,29.7,30.06,NW,313,0.0,0.0,69,0.00,CLR,,0.00,WeatherDisplay:10.37,2013-10-27 03:04:00,
2013-10-26 22:09:00,39.0,29.7,30.06,NW,313,0.0,0.0,69,0.00,CLR,,0.00,WeatherDisplay:10.37,2013-10-27 03:09:00,
2013-10-26 22:14:00,38.9,29.6,30.07,NW,313,0.0,0.0,69,0.00,CLR,,0.00,WeatherDisplay:10.37,2013-10-27 03:14:00,
2013-10-26 22:19:00,38.9,29.6,30.07,NW,313,0.0,0.0,69,0.00,CLR,,0.00,WeatherDisplay:10.37,2013-10-27 03:19:00,
2013-10-26 22:24:00,38.9,29.6,30.07,NW,313,0.0,0.0,69,0.00,CLR,,0.00,WeatherDisplay:10.37,2013-10-27 03:24:00,
2013-10-26 22:29:00,38.8,29.5,30.07,NW,313,0.0,0.0,69,0.00,CLR,,0.00,WeatherDisplay:10.37,2013-10-27 03:29:00,
2013-10-26 22:34:00,38.7,29.4,30.07,NW,313,0.0,0.0,69,0.00,CLR,,0.00,WeatherDisplay:10.37,2013-10-27 03:34:00,
2013-10-26 22:39:00,38.6,29.3,30.07,NW,313,0.0,0.0,69,0.00,CLR,,0.00,WeatherDisplay:10.37,2013-10-27 03:39:00,
2013-10-26 22:44:00,38.6,29.3,30.07,NW,313,0.0,0.0,69,0.00,CLR,,0.00,WeatherDisplay:10.37,2013-10-27 03:44:00,
2013-10-26 22:49:00,38.4,29.1,30.07,NW,313,0.0,0.0,69,0.00,CLR,,0.00,WeatherDisplay:10.37,2013-10-27 03:49:00,
2013-10-26 22:54:00,38.2,28.9,30.07,NW,313,0.0,0.0,69,0.00,CLR,,0.00,WeatherDisplay:10.37,2013-10-27 03:54:00,
2013-10-26 22:59:00,37.8,28.5,30.07,NW,313,0.0,0.0,69,0.00,CLR,,0.00,WeatherDisplay:10.37,2013-10-27 03:59:00,
2013-10-26 23:01:00,37.7,28.4,30.07,NW,313,0.0,0.0,69,0.00,CLR,,0.00,WeatherDisplay:10.37,2013-10-27 04:01:00,
2013-10-26 23:06:00,37.5,27.9,30.07,NW,313,0.0,0.0,68,0.00,CLR,,0.00,WeatherDisplay:10.37,2013-10-27 04:06:00,
2013-10-26 23:11:00,37.5,27.9,30.07,NW,313,0.0,0.0,68,0.00,CLR,,0.00,WeatherDisplay:10.37,2013-10-27 04:11:00,
2013-10-26 23:16:00,37.5,27.9,30.07,NW,313,0.0,0.0,68,0.00,CLR,,0.00,WeatherDisplay:10.37,2013-10-27 04:16:00,
2013-10-26 23:21:00,37.5,27.9,30.06,NW,313,0.0,0.0,68,0.00,CLR,,0.00,WeatherDisplay:10.37,2013-10-27 04:21:00,
2013-10-26 23:26:00,37.5,27.9,30.06,NW,313,0.0,0.0,68,0.00,CLR,,0.00,WeatherDisplay:10.37,2013-10-27 04:26:00,
2013-10-26 23:31:00,37.3,27.7,30.06,NW,313,0.0,0.0,68,0.00,CLR,,0.00,WeatherDisplay:10.37,2013-10-27 04:31:00,
2013-10-26 23:36:00,37.2,27.6,30.06,NW,313,0.0,0.0,68,0.00,CLR,,0.00,WeatherDisplay:10.37,2013-10-27 04:36:00,
2013-10-26 23:41:00,37.1,27.5,30.06,NW,313,0.0,0.0,68,0.00,CLR,,0.00,WeatherDisplay:10.37,2013-10-27 04:41:00,
2013-10-26 23:46:00,36.9,27.3,30.06,NW,313,0.0,0.0,68,0.00,CLR,,0.00,WeatherDisplay:10.37,2013-10-27 04:46:00,
2013-10-26 23:51:00,36.7,27.1,30.06,NW,313,0.0,0.0,68,0.00,CLR,,0.00,WeatherDisplay:10.37,2013-10-27 04:51:00,
2013-10-26 23:56:00,36.5,26.9,30.06,NW,313,0.0,0.0,68,0.00,CLR,,0.00,WeatherDisplay:10.37,2013-10-27 04:56:00,